sensor_id;sensor_type;location;lat;lon;timestamp;P1;durP1;ratioP1;P2;durP2;ratioP2
24901;SDS011;31328;51.402;0.016;2023-05-10T00:01:42;6.15;;;3.70;;
24901;SDS011;31328;51.402;0.016;2023-05-10T00:04:08;8.02;;;3.63;;
24901;SDS011;31328;51.402;0.016;2023-05-10T00:06:35;4.25;;;2.63;;
24901;SDS011;31328;51.402;0.016;2023-05-10T00:09:01;5.03;;;2.90;;
24901;SDS011;31328;51.402;0.016;2023-05-10T00:11:28;5.20;;;3.00;;
24901;SDS011;31328;51.402;0.016;2023-05-10T00:13:55;4.53;;;3.00;;
24901;SDS011;31328;51.402;0.016;2023-05-10T00:16:21;4.30;;;2.70;;
24901;SDS011;31328;51.402;0.016;2023-05-10T00:18:48;4.23;;;2.60;;
24901;SDS011;31328;51.402;0.016;2023-05-10T00:21:14;5.15;;;2.60;;
24901;SDS011;31328;51.402;0.016;2023-05-10T00:23:40;4.20;;;2.60;;
24901;SDS011;31328;51.402;0.016;2023-05-10T00:26:07;6.87;;;3.30;;
24901;SDS011;31328;51.402;0.016;2023-05-10T00:28:33;7.43;;;2.73;;
24901;SDS011;31328;51.402;0.016;2023-05-10T00:31:00;5.07;;;2.97;;
24901;SDS011;31328;51.402;0.016;2023-05-10T00:33:26;6.03;;;3.63;;
24901;SDS011;31328;51.402;0.016;2023-05-10T00:35:52;5.43;;;3.00;;
24901;SDS011;31328;51.402;0.016;2023-05-10T00:38:19;6.60;;;3.33;;
24901;SDS011;31328;51.402;0.016;2023-05-10T00:40:45;7.20;;;3.60;;
24901;SDS011;31328;51.402;0.016;2023-05-10T00:43:19;4.68;;;2.97;;
24901;SDS011;31328;51.402;0.016;2023-05-10T00:45:47;5.37;;;2.90;;
24901;SDS011;31328;51.402;0.016;2023-05-10T00:48:13;5.83;;;3.47;;
24901;SDS011;31328;51.402;0.016;2023-05-10T00:50:40;6.15;;;3.83;;
24901;SDS011;31328;51.402;0.016;2023-05-10T00:53:06;8.20;;;3.83;;
24901;SDS011;31328;51.402;0.016;2023-05-10T00:55:33;7.10;;;4.23;;
24901;SDS011;31328;51.402;0.016;2023-05-10T00:58:00;8.73;;;4.67;;
24901;SDS011;31328;51.402;0.016;2023-05-10T01:00:27;10.43;;;4.75;;
24901;SDS011;31328;51.402;0.016;2023-05-10T01:02:53;8.03;;;4.73;;
24901;SDS011;31328;51.402;0.016;2023-05-10T01:05:21;6.17;;;4.27;;
24901;SDS011;31328;51.402;0.016;2023-05-10T01:07:48;9.20;;;5.63;;
24901;SDS011;31328;51.402;0.016;2023-05-10T01:10:14;8.93;;;5.33;;
24901;SDS011;31328;51.402;0.016;2023-05-10T01:12:42;7.03;;;4.63;;
24901;SDS011;31328;51.402;0.016;2023-05-10T01:15:10;7.93;;;4.70;;
24901;SDS011;31328;51.402;0.016;2023-05-10T01:17:39;7.30;;;4.60;;
24901;SDS011;31328;51.402;0.016;2023-05-10T01:20:08;9.15;;;4.93;;
24901;SDS011;31328;51.402;0.016;2023-05-10T01:25:11;7.47;;;5.10;;
24901;SDS011;31328;51.402;0.016;2023-05-10T01:30:44;11.15;;;5.10;;
24901;SDS011;31328;51.402;0.016;2023-05-10T01:33:40;7.60;;;5.47;;
24901;SDS011;31328;51.402;0.016;2023-05-10T01:38:59;9.18;;;5.18;;
24901;SDS011;31328;51.402;0.016;2023-05-10T01:44:24;11.25;;;5.75;;
24901;SDS011;31328;51.402;0.016;2023-05-10T01:47:17;8.20;;;4.70;;
24901;SDS011;31328;51.402;0.016;2023-05-10T01:49:54;7.68;;;4.85;;
24901;SDS011;31328;51.402;0.016;2023-05-10T01:52:25;8.63;;;5.20;;
24901;SDS011;31328;51.402;0.016;2023-05-10T01:55:00;9.98;;;5.25;;
24901;SDS011;31328;51.402;0.016;2023-05-10T01:57:31;9.30;;;5.77;;
24901;SDS011;31328;51.402;0.016;2023-05-10T02:00:01;7.20;;;5.63;;
24901;SDS011;31328;51.402;0.016;2023-05-10T02:02:40;7.25;;;5.40;;
24901;SDS011;31328;51.402;0.016;2023-05-10T02:05:11;8.43;;;5.00;;
24901;SDS011;31328;51.402;0.016;2023-05-10T02:07:40;8.70;;;5.13;;
24901;SDS011;31328;51.402;0.016;2023-05-10T02:10:07;9.38;;;5.75;;
24901;SDS011;31328;51.402;0.016;2023-05-10T02:12:36;8.40;;;5.07;;
24901;SDS011;31328;51.402;0.016;2023-05-10T02:15:06;7.40;;;4.93;;
24901;SDS011;31328;51.402;0.016;2023-05-10T02:17:35;9.87;;;6.07;;
24901;SDS011;31328;51.402;0.016;2023-05-10T02:20:08;9.47;;;5.57;;
24901;SDS011;31328;51.402;0.016;2023-05-10T02:22:36;8.73;;;5.10;;
24901;SDS011;31328;51.402;0.016;2023-05-10T02:25:04;8.23;;;5.07;;
24901;SDS011;31328;51.402;0.016;2023-05-10T02:27:32;7.00;;;5.10;;
24901;SDS011;31328;51.402;0.016;2023-05-10T02:30:00;9.77;;;5.93;;
24901;SDS011;31328;51.402;0.016;2023-05-10T02:32:27;9.40;;;5.68;;
24901;SDS011;31328;51.402;0.016;2023-05-10T02:34:56;9.57;;;5.60;;
24901;SDS011;31328;51.402;0.016;2023-05-10T02:37:24;9.70;;;5.70;;
24901;SDS011;31328;51.402;0.016;2023-05-10T02:39:53;9.80;;;6.03;;
24901;SDS011;31328;51.402;0.016;2023-05-10T02:42:24;8.97;;;5.50;;
24901;SDS011;31328;51.402;0.016;2023-05-10T02:44:53;7.20;;;4.63;;
24901;SDS011;31328;51.402;0.016;2023-05-10T02:47:25;9.30;;;5.10;;
24901;SDS011;31328;51.402;0.016;2023-05-10T02:49:53;7.57;;;4.83;;
24901;SDS011;31328;51.402;0.016;2023-05-10T02:52:24;10.23;;;4.87;;
24901;SDS011;31328;51.402;0.016;2023-05-10T02:54:58;11.63;;;4.77;;
24901;SDS011;31328;51.402;0.016;2023-05-10T02:59:57;9.40;;;5.00;;
24901;SDS011;31328;51.402;0.016;2023-05-10T03:02:24;8.50;;;5.00;;
24901;SDS011;31328;51.402;0.016;2023-05-10T03:04:51;7.00;;;4.75;;
24901;SDS011;31328;51.402;0.016;2023-05-10T03:07:17;11.37;;;6.40;;
24901;SDS011;31328;51.402;0.016;2023-05-10T03:09:48;8.70;;;4.97;;
24901;SDS011;31328;51.402;0.016;2023-05-10T03:15:13;10.33;;;5.67;;
24901;SDS011;31328;51.402;0.016;2023-05-10T03:17:50;8.03;;;4.77;;
24901;SDS011;31328;51.402;0.016;2023-05-10T03:20:26;9.15;;;4.63;;
24901;SDS011;31328;51.402;0.016;2023-05-10T03:23:13;7.13;;;5.27;;
24901;SDS011;31328;51.402;0.016;2023-05-10T03:26:20;8.23;;;4.50;;
24901;SDS011;31328;51.402;0.016;2023-05-10T03:28:55;7.77;;;4.73;;
24901;SDS011;31328;51.402;0.016;2023-05-10T03:31:24;10.80;;;5.67;;
24901;SDS011;31328;51.402;0.016;2023-05-10T03:33:51;8.77;;;5.23;;
24901;SDS011;31328;51.402;0.016;2023-05-10T03:36:23;10.53;;;5.60;;
24901;SDS011;31328;51.402;0.016;2023-05-10T03:38:50;11.13;;;5.57;;
24901;SDS011;31328;51.402;0.016;2023-05-10T03:41:17;9.20;;;4.90;;
24901;SDS011;31328;51.402;0.016;2023-05-10T03:43:43;10.97;;;4.80;;
24901;SDS011;31328;51.402;0.016;2023-05-10T03:46:10;10.60;;;5.63;;
24901;SDS011;31328;51.402;0.016;2023-05-10T03:48:36;8.57;;;5.40;;
24901;SDS011;31328;51.402;0.016;2023-05-10T03:51:03;10.87;;;5.83;;
24901;SDS011;31328;51.402;0.016;2023-05-10T03:53:29;9.17;;;4.97;;
24901;SDS011;31328;51.402;0.016;2023-05-10T03:55:56;8.40;;;5.47;;
24901;SDS011;31328;51.402;0.016;2023-05-10T03:58:23;8.97;;;5.20;;
24901;SDS011;31328;51.402;0.016;2023-05-10T04:00:50;9.73;;;4.83;;
24901;SDS011;31328;51.402;0.016;2023-05-10T04:03:17;7.57;;;4.73;;
24901;SDS011;31328;51.402;0.016;2023-05-10T04:05:44;9.10;;;4.90;;
24901;SDS011;31328;51.402;0.016;2023-05-10T04:08:11;9.97;;;5.67;;
24901;SDS011;31328;51.402;0.016;2023-05-10T04:10:37;10.53;;;5.30;;
24901;SDS011;31328;51.402;0.016;2023-05-10T04:13:04;8.17;;;5.53;;
24901;SDS011;31328;51.402;0.016;2023-05-10T04:15:30;7.07;;;5.17;;
24901;SDS011;31328;51.402;0.016;2023-05-10T04:17:57;8.23;;;5.50;;
24901;SDS011;31328;51.402;0.016;2023-05-10T04:20:23;10.40;;;5.85;;
24901;SDS011;31328;51.402;0.016;2023-05-10T04:22:50;9.10;;;5.33;;
24901;SDS011;31328;51.402;0.016;2023-05-10T04:25:16;11.03;;;5.53;;
24901;SDS011;31328;51.402;0.016;2023-05-10T04:27:42;9.97;;;5.57;;
24901;SDS011;31328;51.402;0.016;2023-05-10T04:30:09;10.10;;;5.50;;
24901;SDS011;31328;51.402;0.016;2023-05-10T04:32:36;12.52;;;6.85;;
24901;SDS011;31328;51.402;0.016;2023-05-10T04:35:02;10.53;;;5.43;;
24901;SDS011;31328;51.402;0.016;2023-05-10T04:37:30;9.40;;;6.10;;
24901;SDS011;31328;51.402;0.016;2023-05-10T04:39:57;8.57;;;5.27;;
24901;SDS011;31328;51.402;0.016;2023-05-10T04:42:23;11.30;;;5.73;;
24901;SDS011;31328;51.402;0.016;2023-05-10T04:44:49;9.60;;;5.77;;
24901;SDS011;31328;51.402;0.016;2023-05-10T04:47:17;10.37;;;6.17;;
24901;SDS011;31328;51.402;0.016;2023-05-10T04:49:44;9.70;;;5.80;;
24901;SDS011;31328;51.402;0.016;2023-05-10T04:52:10;11.03;;;6.30;;
24901;SDS011;31328;51.402;0.016;2023-05-10T04:54:37;11.80;;;5.57;;
24901;SDS011;31328;51.402;0.016;2023-05-10T04:57:03;17.83;;;6.30;;
24901;SDS011;31328;51.402;0.016;2023-05-10T04:59:29;13.17;;;8.40;;
24901;SDS011;31328;51.402;0.016;2023-05-10T05:01:56;13.47;;;6.70;;
24901;SDS011;31328;51.402;0.016;2023-05-10T05:04:22;15.30;;;7.17;;
24901;SDS011;31328;51.402;0.016;2023-05-10T05:06:49;11.53;;;6.63;;
24901;SDS011;31328;51.402;0.016;2023-05-10T05:09:16;13.90;;;7.07;;
24901;SDS011;31328;51.402;0.016;2023-05-10T05:11:42;14.73;;;8.07;;
24901;SDS011;31328;51.402;0.016;2023-05-10T05:14:08;13.93;;;8.47;;
24901;SDS011;31328;51.402;0.016;2023-05-10T05:16:35;14.90;;;8.43;;
24901;SDS011;31328;51.402;0.016;2023-05-10T05:19:01;13.43;;;7.63;;
24901;SDS011;31328;51.402;0.016;2023-05-10T05:21:28;13.43;;;7.77;;
24901;SDS011;31328;51.402;0.016;2023-05-10T05:23:54;14.37;;;8.87;;
24901;SDS011;31328;51.402;0.016;2023-05-10T05:26:21;16.63;;;7.90;;
24901;SDS011;31328;51.402;0.016;2023-05-10T05:28:47;13.50;;;7.83;;
24901;SDS011;31328;51.402;0.016;2023-05-10T05:31:14;15.73;;;9.03;;
24901;SDS011;31328;51.402;0.016;2023-05-10T05:33:40;18.10;;;8.47;;
24901;SDS011;31328;51.402;0.016;2023-05-10T05:36:07;12.47;;;7.97;;
24901;SDS011;31328;51.402;0.016;2023-05-10T05:38:33;15.03;;;8.27;;
24901;SDS011;31328;51.402;0.016;2023-05-10T05:41:00;17.23;;;9.73;;
24901;SDS011;31328;51.402;0.016;2023-05-10T05:43:26;14.43;;;7.90;;
24901;SDS011;31328;51.402;0.016;2023-05-10T05:45:53;13.57;;;9.30;;
24901;SDS011;31328;51.402;0.016;2023-05-10T05:48:19;16.07;;;8.97;;
24901;SDS011;31328;51.402;0.016;2023-05-10T05:50:46;16.17;;;8.57;;
24901;SDS011;31328;51.402;0.016;2023-05-10T05:53:13;14.03;;;7.90;;
24901;SDS011;31328;51.402;0.016;2023-05-10T05:55:39;14.97;;;10.47;;
24901;SDS011;31328;51.402;0.016;2023-05-10T05:58:06;14.60;;;8.40;;
24901;SDS011;31328;51.402;0.016;2023-05-10T06:00:32;13.17;;;9.00;;
24901;SDS011;31328;51.402;0.016;2023-05-10T06:02:58;14.50;;;8.37;;
24901;SDS011;31328;51.402;0.016;2023-05-10T06:05:25;13.27;;;7.70;;
24901;SDS011;31328;51.402;0.016;2023-05-10T06:07:51;13.97;;;8.93;;
24901;SDS011;31328;51.402;0.016;2023-05-10T06:10:17;14.23;;;9.45;;
24901;SDS011;31328;51.402;0.016;2023-05-10T06:12:44;12.63;;;8.20;;
24901;SDS011;31328;51.402;0.016;2023-05-10T06:15:10;12.80;;;7.77;;
24901;SDS011;31328;51.402;0.016;2023-05-10T06:17:37;13.20;;;7.77;;
24901;SDS011;31328;51.402;0.016;2023-05-10T06:20:04;17.27;;;9.20;;
24901;SDS011;31328;51.402;0.016;2023-05-10T06:22:31;11.33;;;7.60;;
24901;SDS011;31328;51.402;0.016;2023-05-10T06:24:58;14.87;;;8.57;;
24901;SDS011;31328;51.402;0.016;2023-05-10T06:27:24;15.07;;;7.80;;
24901;SDS011;31328;51.402;0.016;2023-05-10T06:29:50;14.53;;;8.10;;
24901;SDS011;31328;51.402;0.016;2023-05-10T06:32:17;12.52;;;7.97;;
24901;SDS011;31328;51.402;0.016;2023-05-10T06:34:43;13.37;;;7.30;;
24901;SDS011;31328;51.402;0.016;2023-05-10T06:37:10;14.53;;;7.63;;
24901;SDS011;31328;51.402;0.016;2023-05-10T06:39:36;13.67;;;7.83;;
24901;SDS011;31328;51.402;0.016;2023-05-10T06:42:03;12.48;;;8.25;;
24901;SDS011;31328;51.402;0.016;2023-05-10T06:44:32;15.98;;;8.38;;
24901;SDS011;31328;51.402;0.016;2023-05-10T06:46:58;14.48;;;8.18;;
24901;SDS011;31328;51.402;0.016;2023-05-10T06:49:24;13.13;;;9.05;;
24901;SDS011;31328;51.402;0.016;2023-05-10T06:51:51;17.60;;;9.13;;
24901;SDS011;31328;51.402;0.016;2023-05-10T06:54:17;18.80;;;8.65;;
24901;SDS011;31328;51.402;0.016;2023-05-10T06:56:43;13.98;;;9.00;;
24901;SDS011;31328;51.402;0.016;2023-05-10T06:59:10;15.73;;;9.30;;
24901;SDS011;31328;51.402;0.016;2023-05-10T07:01:36;14.85;;;8.27;;
24901;SDS011;31328;51.402;0.016;2023-05-10T07:04:02;14.13;;;9.15;;
24901;SDS011;31328;51.402;0.016;2023-05-10T07:06:29;22.00;;;10.25;;
24901;SDS011;31328;51.402;0.016;2023-05-10T07:08:56;16.17;;;9.13;;
24901;SDS011;31328;51.402;0.016;2023-05-10T07:11:22;13.00;;;8.60;;
24901;SDS011;31328;51.402;0.016;2023-05-10T07:13:49;17.92;;;8.45;;
24901;SDS011;31328;51.402;0.016;2023-05-10T07:16:15;15.07;;;8.10;;
24901;SDS011;31328;51.402;0.016;2023-05-10T07:18:42;12.35;;;8.13;;
24901;SDS011;31328;51.402;0.016;2023-05-10T07:21:08;13.75;;;8.07;;
24901;SDS011;31328;51.402;0.016;2023-05-10T07:23:34;14.43;;;7.72;;
24901;SDS011;31328;51.402;0.016;2023-05-10T07:26:01;14.93;;;7.88;;
24901;SDS011;31328;51.402;0.016;2023-05-10T07:28:28;14.05;;;7.68;;
24901;SDS011;31328;51.402;0.016;2023-05-10T07:30:54;11.23;;;6.75;;
24901;SDS011;31328;51.402;0.016;2023-05-10T07:33:20;9.70;;;6.50;;
24901;SDS011;31328;51.402;0.016;2023-05-10T07:35:47;10.40;;;6.57;;
24901;SDS011;31328;51.402;0.016;2023-05-10T07:38:13;9.07;;;6.13;;
24901;SDS011;31328;51.402;0.016;2023-05-10T07:40:40;10.98;;;5.93;;
24901;SDS011;31328;51.402;0.016;2023-05-10T07:43:08;10.57;;;5.68;;
24901;SDS011;31328;51.402;0.016;2023-05-10T07:45:44;10.07;;;5.45;;
24901;SDS011;31328;51.402;0.016;2023-05-10T07:48:10;9.88;;;5.05;;
24901;SDS011;31328;51.402;0.016;2023-05-10T07:50:36;9.13;;;4.47;;
24901;SDS011;31328;51.402;0.016;2023-05-10T07:53:03;10.13;;;4.40;;
24901;SDS011;31328;51.402;0.016;2023-05-10T07:55:29;11.18;;;4.90;;
24901;SDS011;31328;51.402;0.016;2023-05-10T07:57:55;7.57;;;3.80;;
24901;SDS011;31328;51.402;0.016;2023-05-10T08:00:22;9.55;;;4.40;;
24901;SDS011;31328;51.402;0.016;2023-05-10T08:02:48;11.50;;;5.20;;
24901;SDS011;31328;51.402;0.016;2023-05-10T08:05:15;10.70;;;3.20;;
24901;SDS011;31328;51.402;0.016;2023-05-10T08:07:41;8.73;;;3.63;;
24901;SDS011;31328;51.402;0.016;2023-05-10T08:10:08;8.23;;;3.88;;
24901;SDS011;31328;51.402;0.016;2023-05-10T08:12:35;7.38;;;3.67;;
24901;SDS011;31328;51.402;0.016;2023-05-10T08:15:01;8.77;;;3.08;;
24901;SDS011;31328;51.402;0.016;2023-05-10T08:17:28;6.82;;;3.75;;
24901;SDS011;31328;51.402;0.016;2023-05-10T08:19:55;7.93;;;3.03;;
24901;SDS011;31328;51.402;0.016;2023-05-10T08:22:21;8.32;;;3.75;;
24901;SDS011;31328;51.402;0.016;2023-05-10T08:24:47;9.73;;;3.70;;
24901;SDS011;31328;51.402;0.016;2023-05-10T08:27:14;11.82;;;3.53;;
24901;SDS011;31328;51.402;0.016;2023-05-10T08:29:40;11.15;;;3.88;;
24901;SDS011;31328;51.402;0.016;2023-05-10T08:32:07;5.75;;;2.60;;
24901;SDS011;31328;51.402;0.016;2023-05-10T08:34:33;6.90;;;3.00;;
24901;SDS011;31328;51.402;0.016;2023-05-10T08:36:59;7.43;;;3.40;;
24901;SDS011;31328;51.402;0.016;2023-05-10T08:39:26;6.50;;;3.03;;
24901;SDS011;31328;51.402;0.016;2023-05-10T08:41:53;6.53;;;2.78;;
24901;SDS011;31328;51.402;0.016;2023-05-10T08:44:24;7.43;;;3.08;;
24901;SDS011;31328;51.402;0.016;2023-05-10T08:46:51;8.23;;;3.10;;
24901;SDS011;31328;51.402;0.016;2023-05-10T08:49:20;14.32;;;5.32;;
24901;SDS011;31328;51.402;0.016;2023-05-10T08:51:49;8.93;;;3.10;;
24901;SDS011;31328;51.402;0.016;2023-05-10T08:54:21;7.40;;;2.78;;
24901;SDS011;31328;51.402;0.016;2023-05-10T08:56:48;7.20;;;2.80;;
24901;SDS011;31328;51.402;0.016;2023-05-10T08:59:14;7.55;;;2.78;;
24901;SDS011;31328;51.402;0.016;2023-05-10T09:01:42;5.43;;;2.65;;
24901;SDS011;31328;51.402;0.016;2023-05-10T09:04:10;6.13;;;2.85;;
24901;SDS011;31328;51.402;0.016;2023-05-10T09:06:37;5.90;;;2.63;;
24901;SDS011;31328;51.402;0.016;2023-05-10T09:09:04;9.82;;;3.58;;
24901;SDS011;31328;51.402;0.016;2023-05-10T09:11:31;8.93;;;3.58;;
24901;SDS011;31328;51.402;0.016;2023-05-10T09:13:58;4.82;;;2.90;;
24901;SDS011;31328;51.402;0.016;2023-05-10T09:16:24;7.22;;;3.22;;
24901;SDS011;31328;51.402;0.016;2023-05-10T09:18:50;10.45;;;3.67;;
24901;SDS011;31328;51.402;0.016;2023-05-10T09:21:19;5.47;;;2.70;;
24901;SDS011;31328;51.402;0.016;2023-05-10T09:23:46;5.72;;;3.38;;
24901;SDS011;31328;51.402;0.016;2023-05-10T09:26:13;12.07;;;5.18;;
24901;SDS011;31328;51.402;0.016;2023-05-10T09:28:52;10.27;;;4.00;;
24901;SDS011;31328;51.402;0.016;2023-05-10T09:31:23;5.78;;;3.35;;
24901;SDS011;31328;51.402;0.016;2023-05-10T09:33:51;8.82;;;3.70;;
24901;SDS011;31328;51.402;0.016;2023-05-10T09:36:18;7.18;;;3.20;;
24901;SDS011;31328;51.402;0.016;2023-05-10T09:38:48;5.57;;;3.22;;
24901;SDS011;31328;51.402;0.016;2023-05-10T09:41:19;11.40;;;4.72;;
24901;SDS011;31328;51.402;0.016;2023-05-10T09:43:47;8.40;;;4.20;;
24901;SDS011;31328;51.402;0.016;2023-05-10T09:46:14;8.77;;;3.67;;
24901;SDS011;31328;51.402;0.016;2023-05-10T09:48:42;8.45;;;4.22;;
24901;SDS011;31328;51.402;0.016;2023-05-10T09:51:19;5.53;;;3.40;;
24901;SDS011;31328;51.402;0.016;2023-05-10T09:53:47;4.88;;;3.50;;
24901;SDS011;31328;51.402;0.016;2023-05-10T09:56:35;4.15;;;3.65;;
24901;SDS011;31328;51.402;0.016;2023-05-10T09:59:03;7.55;;;3.70;;
24901;SDS011;31328;51.402;0.016;2023-05-10T10:01:30;4.10;;;2.90;;
24901;SDS011;31328;51.402;0.016;2023-05-10T10:03:57;6.93;;;2.97;;
24901;SDS011;31328;51.402;0.016;2023-05-10T10:06:24;6.43;;;3.63;;
24901;SDS011;31328;51.402;0.016;2023-05-10T10:08:51;7.28;;;3.67;;
24901;SDS011;31328;51.402;0.016;2023-05-10T10:11:18;6.45;;;3.13;;
24901;SDS011;31328;51.402;0.016;2023-05-10T10:13:45;5.65;;;3.15;;
24901;SDS011;31328;51.402;0.016;2023-05-10T10:16:11;5.20;;;2.80;;
24901;SDS011;31328;51.402;0.016;2023-05-10T10:18:38;3.80;;;2.10;;
24901;SDS011;31328;51.402;0.016;2023-05-10T10:21:06;5.00;;;2.92;;
24901;SDS011;31328;51.402;0.016;2023-05-10T10:23:36;6.45;;;3.65;;
24901;SDS011;31328;51.402;0.016;2023-05-10T10:26:03;7.30;;;3.28;;
24901;SDS011;31328;51.402;0.016;2023-05-10T10:34:01;6.03;;;2.90;;
24901;SDS011;31328;51.402;0.016;2023-05-10T10:36:45;4.90;;;2.90;;
24901;SDS011;31328;51.402;0.016;2023-05-10T10:39:12;6.30;;;3.80;;
24901;SDS011;31328;51.402;0.016;2023-05-10T10:41:48;6.53;;;3.10;;
24901;SDS011;31328;51.402;0.016;2023-05-10T10:49:48;5.57;;;2.75;;
24901;SDS011;31328;51.402;0.016;2023-05-10T10:54:58;6.00;;;2.65;;
24901;SDS011;31328;51.402;0.016;2023-05-10T10:57:31;6.65;;;2.88;;
24901;SDS011;31328;51.402;0.016;2023-05-10T11:00:30;5.88;;;2.83;;
24901;SDS011;31328;51.402;0.016;2023-05-10T11:03:04;4.43;;;2.53;;
24901;SDS011;31328;51.402;0.016;2023-05-10T11:05:37;6.28;;;3.28;;
24901;SDS011;31328;51.402;0.016;2023-05-10T11:08:09;5.40;;;3.20;;
24901;SDS011;31328;51.402;0.016;2023-05-10T11:11:03;5.25;;;2.58;;
24901;SDS011;31328;51.402;0.016;2023-05-10T11:16:10;6.72;;;3.30;;
24901;SDS011;31328;51.402;0.016;2023-05-10T11:18:37;5.32;;;2.75;;
24901;SDS011;31328;51.402;0.016;2023-05-10T11:21:03;6.13;;;2.17;;
24901;SDS011;31328;51.402;0.016;2023-05-10T11:23:33;5.05;;;2.08;;
24901;SDS011;31328;51.402;0.016;2023-05-10T11:26:13;9.43;;;2.83;;
24901;SDS011;31328;51.402;0.016;2023-05-10T11:28:44;4.47;;;2.35;;
24901;SDS011;31328;51.402;0.016;2023-05-10T11:31:15;5.60;;;2.63;;
24901;SDS011;31328;51.402;0.016;2023-05-10T11:33:43;3.42;;;1.90;;
24901;SDS011;31328;51.402;0.016;2023-05-10T11:36:14;5.18;;;2.00;;
24901;SDS011;31328;51.402;0.016;2023-05-10T11:38:42;6.72;;;2.25;;
24901;SDS011;31328;51.402;0.016;2023-05-10T11:41:09;3.75;;;2.25;;
24901;SDS011;31328;51.402;0.016;2023-05-10T11:43:41;5.93;;;2.30;;
24901;SDS011;31328;51.402;0.016;2023-05-10T11:46:09;4.00;;;1.90;;
24901;SDS011;31328;51.402;0.016;2023-05-10T11:48:41;6.32;;;3.08;;
24901;SDS011;31328;51.402;0.016;2023-05-10T11:51:08;6.53;;;2.53;;
24901;SDS011;31328;51.402;0.016;2023-05-10T11:53:35;4.28;;;2.17;;
24901;SDS011;31328;51.402;0.016;2023-05-10T11:56:03;4.20;;;1.67;;
24901;SDS011;31328;51.402;0.016;2023-05-10T11:58:33;3.88;;;1.83;;
24901;SDS011;31328;51.402;0.016;2023-05-10T12:01:00;2.85;;;1.70;;
24901;SDS011;31328;51.402;0.016;2023-05-10T12:03:27;3.28;;;1.60;;
24901;SDS011;31328;51.402;0.016;2023-05-10T12:05:57;2.95;;;1.80;;
24901;SDS011;31328;51.402;0.016;2023-05-10T12:08:25;3.13;;;1.55;;
24901;SDS011;31328;51.402;0.016;2023-05-10T12:10:53;4.20;;;1.33;;
24901;SDS011;31328;51.402;0.016;2023-05-10T12:13:42;2.95;;;1.50;;
24901;SDS011;31328;51.402;0.016;2023-05-10T12:18:44;4.57;;;1.55;;
24901;SDS011;31328;51.402;0.016;2023-05-10T12:21:13;3.42;;;1.30;;
24901;SDS011;31328;51.402;0.016;2023-05-10T12:23:41;2.88;;;1.50;;
24901;SDS011;31328;51.402;0.016;2023-05-10T12:26:10;2.22;;;1.17;;
24901;SDS011;31328;51.402;0.016;2023-05-10T12:28:37;3.80;;;1.27;;
24901;SDS011;31328;51.402;0.016;2023-05-10T12:31:05;5.03;;;1.70;;
24901;SDS011;31328;51.402;0.016;2023-05-10T12:33:36;5.38;;;2.05;;
24901;SDS011;31328;51.402;0.016;2023-05-10T12:36:07;4.50;;;1.85;;
24901;SDS011;31328;51.402;0.016;2023-05-10T12:38:36;2.63;;;1.50;;
24901;SDS011;31328;51.402;0.016;2023-05-10T12:41:09;4.28;;;2.10;;
24901;SDS011;31328;51.402;0.016;2023-05-10T12:43:37;4.07;;;1.58;;
24901;SDS011;31328;51.402;0.016;2023-05-10T12:46:11;3.08;;;1.63;;
24901;SDS011;31328;51.402;0.016;2023-05-10T12:48:39;4.45;;;1.60;;
24901;SDS011;31328;51.402;0.016;2023-05-10T12:51:07;4.88;;;2.15;;
24901;SDS011;31328;51.402;0.016;2023-05-10T12:53:38;3.97;;;1.30;;
24901;SDS011;31328;51.402;0.016;2023-05-10T12:56:05;4.93;;;1.30;;
24901;SDS011;31328;51.402;0.016;2023-05-10T12:58:32;4.28;;;1.17;;
24901;SDS011;31328;51.402;0.016;2023-05-10T13:01:00;5.35;;;1.75;;
24901;SDS011;31328;51.402;0.016;2023-05-10T13:03:26;6.65;;;1.80;;
24901;SDS011;31328;51.402;0.016;2023-05-10T13:05:52;3.22;;;1.90;;
24901;SDS011;31328;51.402;0.016;2023-05-10T13:08:19;3.95;;;1.38;;
24901;SDS011;31328;51.402;0.016;2023-05-10T13:10:45;2.28;;;1.60;;
24901;SDS011;31328;51.402;0.016;2023-05-10T13:13:12;4.97;;;1.85;;
24901;SDS011;31328;51.402;0.016;2023-05-10T13:15:38;4.75;;;1.80;;
24901;SDS011;31328;51.402;0.016;2023-05-10T13:18:04;5.63;;;2.08;;
24901;SDS011;31328;51.402;0.016;2023-05-10T13:20:31;3.35;;;1.27;;
24901;SDS011;31328;51.402;0.016;2023-05-10T13:22:57;5.30;;;1.88;;
24901;SDS011;31328;51.402;0.016;2023-05-10T13:25:23;5.05;;;1.70;;
24901;SDS011;31328;51.402;0.016;2023-05-10T13:27:50;4.40;;;1.90;;
24901;SDS011;31328;51.402;0.016;2023-05-10T13:30:16;3.22;;;2.15;;
24901;SDS011;31328;51.402;0.016;2023-05-10T13:32:43;5.07;;;2.17;;
24901;SDS011;31328;51.402;0.016;2023-05-10T13:35:09;7.88;;;2.40;;
24901;SDS011;31328;51.402;0.016;2023-05-10T13:37:35;3.30;;;1.80;;
24901;SDS011;31328;51.402;0.016;2023-05-10T13:40:03;4.45;;;1.98;;
24901;SDS011;31328;51.402;0.016;2023-05-10T13:42:30;4.75;;;2.10;;
24901;SDS011;31328;51.402;0.016;2023-05-10T13:44:59;5.35;;;2.88;;
24901;SDS011;31328;51.402;0.016;2023-05-10T13:47:28;3.72;;;1.70;;
24901;SDS011;31328;51.402;0.016;2023-05-10T13:49:54;5.70;;;1.73;;
24901;SDS011;31328;51.402;0.016;2023-05-10T13:52:21;4.25;;;1.60;;
24901;SDS011;31328;51.402;0.016;2023-05-10T13:54:48;3.55;;;1.75;;
24901;SDS011;31328;51.402;0.016;2023-05-10T13:57:14;3.65;;;1.40;;
24901;SDS011;31328;51.402;0.016;2023-05-10T13:59:42;3.13;;;1.83;;
24901;SDS011;31328;51.402;0.016;2023-05-10T14:02:08;4.22;;;2.35;;
24901;SDS011;31328;51.402;0.016;2023-05-10T14:04:35;4.63;;;1.73;;
24901;SDS011;31328;51.402;0.016;2023-05-10T14:07:01;4.15;;;1.75;;
24901;SDS011;31328;51.402;0.016;2023-05-10T14:09:27;2.85;;;1.20;;
24901;SDS011;31328;51.402;0.016;2023-05-10T14:11:54;4.97;;;1.65;;
24901;SDS011;31328;51.402;0.016;2023-05-10T14:14:21;2.63;;;1.13;;
24901;SDS011;31328;51.402;0.016;2023-05-10T14:16:47;3.63;;;1.45;;
24901;SDS011;31328;51.402;0.016;2023-05-10T14:19:14;5.60;;;1.60;;
24901;SDS011;31328;51.402;0.016;2023-05-10T14:21:40;3.83;;;1.60;;
24901;SDS011;31328;51.402;0.016;2023-05-10T14:24:07;4.35;;;1.35;;
24901;SDS011;31328;51.402;0.016;2023-05-10T14:26:33;8.05;;;1.85;;
24901;SDS011;31328;51.402;0.016;2023-05-10T14:29:00;3.85;;;1.40;;
24901;SDS011;31328;51.402;0.016;2023-05-10T14:31:26;3.45;;;1.60;;
24901;SDS011;31328;51.402;0.016;2023-05-10T14:33:53;5.53;;;1.70;;
24901;SDS011;31328;51.402;0.016;2023-05-10T14:36:19;4.18;;;1.88;;
24901;SDS011;31328;51.402;0.016;2023-05-10T14:38:46;4.57;;;1.83;;
24901;SDS011;31328;51.402;0.016;2023-05-10T14:41:12;4.88;;;1.90;;
24901;SDS011;31328;51.402;0.016;2023-05-10T14:43:40;5.03;;;2.40;;
24901;SDS011;31328;51.402;0.016;2023-05-10T14:46:07;5.05;;;1.88;;
24901;SDS011;31328;51.402;0.016;2023-05-10T14:48:34;5.03;;;2.10;;
24901;SDS011;31328;51.402;0.016;2023-05-10T14:51:00;6.55;;;2.55;;
24901;SDS011;31328;51.402;0.016;2023-05-10T14:53:27;4.15;;;2.00;;
24901;SDS011;31328;51.402;0.016;2023-05-10T14:55:53;7.60;;;2.33;;
24901;SDS011;31328;51.402;0.016;2023-05-10T14:58:20;4.28;;;1.85;;
24901;SDS011;31328;51.402;0.016;2023-05-10T15:00:46;3.72;;;1.70;;
24901;SDS011;31328;51.402;0.016;2023-05-10T15:03:13;4.30;;;1.60;;
24901;SDS011;31328;51.402;0.016;2023-05-10T15:05:39;2.67;;;1.50;;
24901;SDS011;31328;51.402;0.016;2023-05-10T15:08:06;2.60;;;1.30;;
24901;SDS011;31328;51.402;0.016;2023-05-10T15:10:32;3.83;;;1.52;;
24901;SDS011;31328;51.402;0.016;2023-05-10T15:12:59;2.92;;;1.40;;
24901;SDS011;31328;51.402;0.016;2023-05-10T15:15:25;2.67;;;1.42;;
24901;SDS011;31328;51.402;0.016;2023-05-10T15:17:52;1.58;;;0.98;;
24901;SDS011;31328;51.402;0.016;2023-05-10T15:20:18;2.17;;;0.90;;
24901;SDS011;31328;51.402;0.016;2023-05-10T15:22:44;2.67;;;1.10;;
24901;SDS011;31328;51.402;0.016;2023-05-10T15:25:11;1.83;;;1.10;;